createdAt,value
2022-09-15T00:02:20.936Z,100.00
2022-09-15T00:07:24.266Z,100.00
2022-09-15T00:12:28.325Z,100.00
2022-09-15T00:17:31.703Z,100.00
2022-09-15T00:22:34.528Z,100.00
2022-09-15T00:27:37.462Z,100.00
2022-09-15T00:32:40.281Z,100.00
2022-09-15T00:37:43.042Z,100.00
2022-09-15T00:42:45.868Z,100.00
2022-09-15T00:47:48.804Z,100.00
2022-09-15T00:52:58.813Z,100.00
2022-09-15T00:58:06.859Z,100.00
2022-09-15T01:03:10.195Z,100.00
2022-09-15T01:08:46.313Z,100.00
2022-09-15T01:13:49.113Z,100.00
2022-09-15T01:19:13.592Z,100.00
2022-09-15T01:24:34.295Z,100.00
2022-09-15T01:30:06.046Z,100.00
2022-09-15T01:35:37.475Z,100.00
2022-09-15T01:40:54.377Z,100.00
2022-09-15T01:45:59.311Z,100.00
2022-09-15T01:51:04.089Z,100.00
2022-09-15T01:56:10.345Z,100.00
2022-09-15T02:01:34.145Z,100.00
2022-09-15T02:06:53.775Z,100.00
2022-09-15T02:12:27.029Z,100.00
2022-09-15T02:17:32.788Z,100.00
2022-09-15T02:22:39.795Z,100.00
2022-09-15T02:27:54.101Z,100.00
2022-09-15T02:33:00.891Z,100.00
2022-09-15T02:38:07.536Z,100.00
2022-09-15T02:43:16.306Z,100.00
2022-09-15T02:48:19.284Z,100.00
2022-09-15T02:53:22.017Z,100.00
2022-09-15T02:58:24.961Z,100.00
2022-09-15T03:03:27.748Z,100.00
2022-09-15T03:08:31.242Z,100.00
2022-09-15T03:13:34.122Z,100.00
2022-09-15T03:18:38.138Z,100.00
2022-09-15T03:23:42.156Z,100.00
2022-09-15T03:28:45.259Z,100.00
2022-09-15T03:33:49.244Z,100.00
2022-09-15T03:38:52.717Z,100.00
2022-09-15T03:43:56.866Z,100.00
2022-09-15T03:48:59.625Z,100.00
2022-09-15T03:54:03.300Z,100.00
2022-09-15T03:59:06.815Z,100.00
2022-09-15T04:04:09.681Z,100.00
2022-09-15T04:09:12.499Z,100.00
2022-09-15T04:14:15.817Z,100.00
2022-09-15T04:19:18.646Z,100.00
2022-09-15T04:24:21.466Z,100.00
2022-09-15T04:29:24.944Z,100.00
2022-09-15T04:34:27.755Z,100.00
2022-09-15T04:39:30.651Z,100.00
2022-09-15T04:44:33.662Z,100.00
2022-09-15T04:49:36.477Z,100.00
2022-09-15T04:54:39.274Z,100.00
2022-09-15T04:59:42.072Z,100.00
2022-09-15T05:04:45.695Z,100.00
2022-09-15T05:36:47.934Z,100.00
2022-09-15T05:41:50.812Z,100.00
2022-09-15T05:46:53.763Z,100.00
2022-09-15T05:51:56.951Z,100.00
2022-09-15T05:57:07.893Z,100.00
2022-09-15T06:02:13.497Z,100.00
2022-09-15T06:07:19.998Z,100.00
2022-09-15T06:12:23.388Z,100.00
2022-09-15T06:17:26.235Z,100.00
2022-09-15T06:22:29.392Z,100.00
2022-09-15T06:27:32.915Z,99.89
2022-09-15T06:32:37.669Z,98.46
2022-09-15T06:37:41.766Z,96.61
2022-09-15T06:42:44.841Z,96.07
2022-09-15T06:48:02.074Z,94.62
2022-09-15T06:53:12.143Z,91.90
2022-09-15T06:58:15.725Z,91.14
2022-09-15T07:12:11.867Z,92.52
2022-09-15T07:17:17.164Z,93.37
2022-09-15T07:22:18.799Z,93.37
2022-09-15T07:27:36.909Z,93.40
2022-09-15T07:32:38.894Z,92.36
2022-09-15T07:37:40.396Z,92.40
2022-09-15T07:42:43.329Z,91.39
2022-09-15T07:47:45.114Z,91.19
2022-09-15T07:52:46.566Z,90.44
2022-09-15T07:58:00.369Z,89.82
2022-09-15T08:03:02.486Z,86.56
2022-09-15T08:08:05.538Z,87.06
2022-09-15T08:13:07.670Z,85.90
2022-09-15T08:18:09.152Z,85.13
2022-09-15T08:23:11.008Z,83.77
2022-09-15T08:28:12.547Z,79.05
2022-09-15T08:33:14.132Z,75.90
2022-09-15T08:38:15.534Z,74.51
2022-09-15T08:43:25.704Z,75.68
2022-09-15T08:48:36.863Z,75.26
2022-09-15T08:53:42.927Z,72.90
2022-09-15T08:58:45.458Z,72.25
2022-09-15T09:04:05.500Z,73.25
2022-09-15T09:09:25.413Z,72.24
2022-09-15T09:14:40.580Z,68.96
2022-09-15T09:19:52.510Z,67.91
2022-09-15T09:24:57.589Z,67.61
2022-09-15T09:30:15.936Z,67.72
2022-09-15T09:35:48.483Z,65.28
2022-09-15T09:40:50.702Z,66.72
2022-09-15T09:45:52.263Z,66.12
2022-09-15T09:50:54.725Z,67.36
2022-09-15T09:56:11.919Z,68.87
2022-09-15T10:01:19.630Z,69.59
2022-09-15T10:06:25.102Z,69.38
2022-09-15T10:11:50.130Z,70.00
2022-09-15T10:17:18.329Z,70.46
2022-09-15T10:22:31.189Z,69.84
2022-09-15T10:27:35.058Z,70.21
2022-09-15T10:32:37.672Z,71.66
2022-09-15T10:37:45.108Z,72.77
2022-09-15T10:43:11.105Z,72.98
2022-09-15T10:48:36.114Z,73.30
2022-09-15T10:54:07.387Z,74.04
2022-09-15T11:05:29.577Z,72.49
2022-09-15T11:10:55.837Z,70.55
2022-09-15T11:16:37.882Z,69.45
2022-09-15T11:21:47.168Z,69.82
2022-09-15T11:27:06.913Z,69.07
2022-09-15T11:32:24.989Z,67.86
2022-09-15T11:37:41.453Z,67.86
2022-09-15T11:42:55.634Z,69.70
2022-09-15T11:48:06.909Z,71.09
2022-09-15T11:53:18.276Z,70.46
2022-09-15T11:58:47.611Z,69.21
2022-09-15T12:04:10.560Z,68.65
2022-09-15T12:09:15.546Z,68.00
2022-09-15T12:14:29.972Z,65.95
2022-09-15T12:19:37.540Z,66.53
2022-09-15T12:25:01.248Z,66.02
2022-09-15T12:30:03.557Z,66.26
2022-09-15T12:35:17.129Z,64.76
2022-09-15T12:40:39.473Z,63.86
2022-09-15T12:45:55.109Z,62.71
2022-09-15T12:51:00.956Z,60.80
2022-09-15T12:56:06.825Z,59.58
2022-09-15T13:01:26.165Z,59.15
2022-09-15T13:06:34.366Z,58.95
2022-09-15T13:11:42.081Z,56.98
2022-09-15T13:16:52.351Z,57.21
2022-09-15T13:21:54.074Z,56.23
2022-09-15T13:27:00.930Z,54.04
2022-09-15T13:32:33.515Z,54.58
2022-09-15T13:38:17.105Z,55.28
2022-09-15T13:43:21.243Z,56.46
2022-09-15T13:49:00.377Z,55.53
2022-09-15T13:54:15.511Z,55.71
2022-09-15T13:59:29.029Z,56.25
2022-09-15T14:04:31.309Z,56.62
2022-09-15T14:09:41.653Z,57.65
2022-09-15T14:14:51.642Z,58.57
2022-09-15T14:19:58.198Z,60.28
2022-09-15T14:25:08.719Z,63.67
2022-09-15T14:30:19.070Z,64.14
2022-09-15T14:35:26.929Z,66.23
2022-09-15T14:40:34.209Z,67.34
2022-09-15T14:51:08.521Z,67.65
2022-09-15T14:56:19.535Z,68.61
2022-09-15T15:01:33.080Z,68.67
2022-09-15T15:06:44.186Z,68.77
2022-09-15T15:11:56.467Z,68.93
2022-09-15T15:17:07.561Z,69.45
2022-09-15T15:22:23.217Z,70.98
2022-09-15T15:27:33.858Z,71.13
2022-09-15T15:32:35.360Z,71.53
2022-09-15T15:37:36.934Z,70.42
2022-09-15T15:42:54.238Z,69.72
2022-09-15T15:47:57.100Z,69.03
2022-09-15T15:53:00.315Z,68.47
2022-09-15T15:58:01.744Z,68.99
2022-09-15T16:03:04.719Z,68.92
2022-09-15T16:08:09.558Z,68.67
2022-09-15T16:13:15.604Z,68.04
2022-09-15T16:18:17.489Z,68.90
2022-09-15T16:23:22.153Z,69.22
2022-09-15T16:28:23.618Z,69.77
2022-09-15T16:33:25.740Z,69.53
2022-09-15T16:38:27.985Z,69.45
2022-09-15T16:43:30.239Z,68.64
2022-09-15T16:48:31.896Z,67.54
2022-09-15T16:53:33.361Z,67.88
2022-09-15T16:58:34.943Z,68.70
2022-09-15T17:03:36.418Z,69.46
2022-09-15T17:08:37.940Z,70.61
2022-09-15T17:13:39.506Z,71.77
2022-09-15T17:18:40.941Z,72.92
2022-09-15T17:23:49.530Z,73.90
2022-09-15T17:28:51.602Z,74.59
2022-09-15T17:33:53.233Z,74.65
2022-09-15T17:38:55.239Z,74.35
2022-09-15T17:43:57.398Z,74.23
2022-09-15T17:48:58.834Z,74.38
2022-09-15T17:54:00.266Z,74.69
2022-09-15T17:59:01.747Z,75.35
2022-09-15T18:04:03.289Z,76.11
2022-09-15T18:09:04.963Z,76.67
2022-09-15T18:14:06.544Z,77.19
2022-09-15T18:19:07.966Z,78.68
2022-09-15T18:24:14.448Z,79.20
2022-09-15T18:29:16.039Z,80.26
2022-09-15T18:34:17.551Z,81.40
2022-09-15T18:39:18.957Z,82.13
2022-09-15T18:44:21.529Z,82.63
2022-09-15T18:49:22.976Z,82.96
2022-09-15T18:54:25.018Z,83.68
2022-09-15T18:59:26.751Z,84.73
2022-09-15T19:04:32.179Z,85.02
2022-09-15T19:09:36.113Z,85.39
2022-09-15T19:14:41.297Z,85.64
2022-09-15T19:19:46.626Z,87.24
2022-09-15T19:24:49.480Z,87.12
2022-09-15T19:29:52.325Z,87.22
2022-09-15T19:34:55.127Z,87.85
2022-09-15T19:39:58.045Z,88.55
2022-09-15T19:45:00.886Z,88.95
2022-09-15T19:50:06.225Z,90.21
2022-09-15T19:55:10.272Z,90.53
2022-09-15T20:00:14.771Z,90.93
2022-09-15T20:05:32.803Z,91.02
2022-09-15T20:10:39.581Z,92.12
2022-09-15T20:15:43.414Z,92.29
2022-09-15T20:20:46.291Z,93.73
2022-09-15T20:26:01.057Z,94.49
2022-09-15T20:31:08.269Z,94.15
2022-09-15T20:36:36.607Z,95.06
2022-09-15T20:41:41.084Z,95.49
2022-09-15T20:46:44.033Z,95.41
2022-09-15T20:51:47.620Z,95.90
2022-09-15T20:56:50.353Z,97.24
2022-09-15T21:01:53.153Z,97.75
2022-09-15T21:06:56.128Z,97.58
2022-09-15T21:12:00.259Z,98.04
2022-09-15T21:17:03.200Z,98.28
2022-09-15T21:22:06.362Z,97.96
2022-09-15T21:27:27.131Z,97.73
2022-09-15T21:32:29.948Z,97.94
2022-09-15T21:37:32.884Z,98.44
2022-09-15T21:42:35.718Z,98.40
2022-09-15T21:47:38.634Z,98.39
2022-09-15T21:52:41.442Z,98.49
2022-09-15T21:57:44.193Z,98.24
2022-09-15T22:02:51.264Z,98.26
2022-09-15T22:07:54.016Z,98.63
2022-09-15T22:12:57.106Z,98.54
2022-09-15T22:17:59.874Z,98.81
2022-09-15T22:23:02.736Z,98.90
2022-09-15T22:28:05.589Z,98.96
2022-09-15T22:33:08.401Z,99.20
2022-09-15T22:38:11.168Z,99.16
2022-09-15T22:43:13.975Z,99.13
2022-09-15T22:48:17.349Z,99.33
2022-09-15T22:53:20.235Z,99.81
2022-09-15T22:58:22.986Z,99.94
2022-09-15T23:03:25.810Z,100.00
2022-09-15T23:08:29.794Z,100.00
2022-09-15T23:13:33.307Z,100.00
2022-09-15T23:18:36.919Z,100.00
2022-09-15T23:23:41.554Z,100.00
2022-09-15T23:28:44.446Z,100.00
2022-09-15T23:33:48.042Z,100.00
2022-09-15T23:38:50.866Z,100.00
2022-09-15T23:43:53.678Z,100.00
2022-09-15T23:48:56.487Z,100.00
2022-09-15T23:53:59.407Z,100.00
2022-09-15T23:59:02.302Z,100.00
